sensor_id;sensor_type;location;lat;lon;timestamp;P1;durP1;ratioP1;P2;durP2;ratioP2
21181;SDS011;10749;46.296;7.524;2023-11-21T00:01:25;5.03;;;1.93;;
21181;SDS011;10749;46.296;7.524;2023-11-21T00:03:50;3.57;;;2.30;;
21181;SDS011;10749;46.296;7.524;2023-11-21T00:06:16;4.40;;;2.20;;
21181;SDS011;10749;46.296;7.524;2023-11-21T00:08:41;4.57;;;2.10;;
21181;SDS011;10749;46.296;7.524;2023-11-21T00:11:06;6.17;;;2.60;;
21181;SDS011;10749;46.296;7.524;2023-11-21T00:13:32;5.30;;;2.37;;
21181;SDS011;10749;46.296;7.524;2023-11-21T00:15:58;5.80;;;2.30;;
21181;SDS011;10749;46.296;7.524;2023-11-21T00:18:23;3.27;;;1.73;;
21181;SDS011;10749;46.296;7.524;2023-11-21T00:20:49;6.10;;;1.97;;
21181;SDS011;10749;46.296;7.524;2023-11-21T00:23:15;3.40;;;2.00;;
21181;SDS011;10749;46.296;7.524;2023-11-21T00:25:40;4.50;;;2.00;;
21181;SDS011;10749;46.296;7.524;2023-11-21T00:28:06;4.70;;;1.90;;
21181;SDS011;10749;46.296;7.524;2023-11-21T00:30:31;2.57;;;1.73;;
21181;SDS011;10749;46.296;7.524;2023-11-21T00:32:57;5.23;;;1.97;;
21181;SDS011;10749;46.296;7.524;2023-11-21T00:35:22;3.20;;;1.67;;
21181;SDS011;10749;46.296;7.524;2023-11-21T00:37:47;4.00;;;1.70;;
21181;SDS011;10749;46.296;7.524;2023-11-21T00:40:14;4.60;;;1.63;;
21181;SDS011;10749;46.296;7.524;2023-11-21T00:42:40;4.87;;;2.03;;
21181;SDS011;10749;46.296;7.524;2023-11-21T00:45:06;3.53;;;1.80;;
21181;SDS011;10749;46.296;7.524;2023-11-21T00:47:32;3.23;;;1.50;;
21181;SDS011;10749;46.296;7.524;2023-11-21T00:49:57;6.37;;;2.07;;
21181;SDS011;10749;46.296;7.524;2023-11-21T00:52:22;5.77;;;2.27;;
21181;SDS011;10749;46.296;7.524;2023-11-21T00:54:48;4.77;;;2.00;;
21181;SDS011;10749;46.296;7.524;2023-11-21T00:57:13;4.87;;;1.90;;
21181;SDS011;10749;46.296;7.524;2023-11-21T00:59:39;5.70;;;1.83;;
21181;SDS011;10749;46.296;7.524;2023-11-21T01:02:04;4.23;;;2.37;;
21181;SDS011;10749;46.296;7.524;2023-11-21T01:04:30;5.83;;;2.13;;
21181;SDS011;10749;46.296;7.524;2023-11-21T01:06:57;3.57;;;1.67;;
21181;SDS011;10749;46.296;7.524;2023-11-21T01:09:22;3.43;;;2.10;;
21181;SDS011;10749;46.296;7.524;2023-11-21T01:11:48;4.00;;;1.80;;
21181;SDS011;10749;46.296;7.524;2023-11-21T01:14:14;5.40;;;2.40;;
21181;SDS011;10749;46.296;7.524;2023-11-21T01:16:39;5.63;;;2.00;;
21181;SDS011;10749;46.296;7.524;2023-11-21T01:19:04;6.87;;;1.93;;
21181;SDS011;10749;46.296;7.524;2023-11-21T01:21:30;5.03;;;1.90;;
21181;SDS011;10749;46.296;7.524;2023-11-21T01:23:55;5.03;;;1.87;;
21181;SDS011;10749;46.296;7.524;2023-11-21T01:26:21;5.03;;;1.67;;
21181;SDS011;10749;46.296;7.524;2023-11-21T01:28:46;4.63;;;2.30;;
21181;SDS011;10749;46.296;7.524;2023-11-21T01:31:13;5.67;;;2.30;;
21181;SDS011;10749;46.296;7.524;2023-11-21T01:33:39;5.37;;;2.40;;
21181;SDS011;10749;46.296;7.524;2023-11-21T01:36:05;4.67;;;2.00;;
21181;SDS011;10749;46.296;7.524;2023-11-21T01:38:30;7.37;;;2.37;;
21181;SDS011;10749;46.296;7.524;2023-11-21T01:40:57;4.57;;;2.23;;
21181;SDS011;10749;46.296;7.524;2023-11-21T01:43:22;3.20;;;1.67;;
21181;SDS011;10749;46.296;7.524;2023-11-21T01:45:48;4.30;;;1.67;;
21181;SDS011;10749;46.296;7.524;2023-11-21T01:48:13;5.07;;;1.90;;
21181;SDS011;10749;46.296;7.524;2023-11-21T01:50:39;4.03;;;1.87;;
21181;SDS011;10749;46.296;7.524;2023-11-21T01:53:05;6.97;;;1.90;;
21181;SDS011;10749;46.296;7.524;2023-11-21T01:55:31;3.20;;;1.57;;
21181;SDS011;10749;46.296;7.524;2023-11-21T01:57:58;5.83;;;2.00;;
21181;SDS011;10749;46.296;7.524;2023-11-21T02:00:24;4.50;;;2.00;;
21181;SDS011;10749;46.296;7.524;2023-11-21T02:02:53;5.20;;;1.80;;
21181;SDS011;10749;46.296;7.524;2023-11-21T02:05:18;4.37;;;1.67;;
21181;SDS011;10749;46.296;7.524;2023-11-21T02:07:45;6.03;;;1.57;;
21181;SDS011;10749;46.296;7.524;2023-11-21T02:10:14;2.87;;;1.53;;
21181;SDS011;10749;46.296;7.524;2023-11-21T02:12:40;5.77;;;1.63;;
21181;SDS011;10749;46.296;7.524;2023-11-21T02:15:07;4.40;;;1.70;;
21181;SDS011;10749;46.296;7.524;2023-11-21T02:17:43;4.80;;;1.93;;
21181;SDS011;10749;46.296;7.524;2023-11-21T02:20:09;3.13;;;1.50;;
21181;SDS011;10749;46.296;7.524;2023-11-21T02:22:40;7.77;;;1.47;;
21181;SDS011;10749;46.296;7.524;2023-11-21T02:25:07;2.70;;;1.30;;
21181;SDS011;10749;46.296;7.524;2023-11-21T02:27:32;3.57;;;1.50;;
21181;SDS011;10749;46.296;7.524;2023-11-21T02:29:58;3.30;;;1.30;;
21181;SDS011;10749;46.296;7.524;2023-11-21T02:32:24;6.80;;;1.97;;
21181;SDS011;10749;46.296;7.524;2023-11-21T02:34:51;4.57;;;1.83;;
21181;SDS011;10749;46.296;7.524;2023-11-21T02:37:16;6.97;;;1.90;;
21181;SDS011;10749;46.296;7.524;2023-11-21T02:39:41;5.70;;;1.63;;
21181;SDS011;10749;46.296;7.524;2023-11-21T02:42:07;6.93;;;1.97;;
21181;SDS011;10749;46.296;7.524;2023-11-21T02:44:32;4.00;;;1.70;;
21181;SDS011;10749;46.296;7.524;2023-11-21T02:46:58;2.70;;;1.47;;
21181;SDS011;10749;46.296;7.524;2023-11-21T02:49:23;3.80;;;1.53;;
21181;SDS011;10749;46.296;7.524;2023-11-21T02:51:48;3.17;;;1.30;;
21181;SDS011;10749;46.296;7.524;2023-11-21T02:54:14;5.13;;;1.50;;
21181;SDS011;10749;46.296;7.524;2023-11-21T02:56:39;4.37;;;1.60;;
21181;SDS011;10749;46.296;7.524;2023-11-21T02:59:05;4.00;;;1.40;;
21181;SDS011;10749;46.296;7.524;2023-11-21T03:01:30;4.83;;;1.70;;
21181;SDS011;10749;46.296;7.524;2023-11-21T03:03:56;3.27;;;1.53;;
21181;SDS011;10749;46.296;7.524;2023-11-21T03:06:21;2.60;;;1.70;;
21181;SDS011;10749;46.296;7.524;2023-11-21T03:08:47;3.90;;;1.33;;
21181;SDS011;10749;46.296;7.524;2023-11-21T03:11:13;5.57;;;1.33;;
21181;SDS011;10749;46.296;7.524;2023-11-21T03:13:39;2.40;;;1.37;;
21181;SDS011;10749;46.296;7.524;2023-11-21T03:16:06;2.57;;;1.40;;
21181;SDS011;10749;46.296;7.524;2023-11-21T03:18:35;3.53;;;1.40;;
21181;SDS011;10749;46.296;7.524;2023-11-21T03:21:01;2.23;;;1.13;;
21181;SDS011;10749;46.296;7.524;2023-11-21T03:23:26;2.90;;;1.30;;
21181;SDS011;10749;46.296;7.524;2023-11-21T03:25:52;3.30;;;1.27;;
21181;SDS011;10749;46.296;7.524;2023-11-21T03:28:17;2.77;;;1.20;;
21181;SDS011;10749;46.296;7.524;2023-11-21T03:30:43;2.20;;;1.33;;
21181;SDS011;10749;46.296;7.524;2023-11-21T03:33:08;4.03;;;1.60;;
21181;SDS011;10749;46.296;7.524;2023-11-21T03:35:33;2.73;;;1.50;;
21181;SDS011;10749;46.296;7.524;2023-11-21T03:37:58;5.53;;;1.50;;
21181;SDS011;10749;46.296;7.524;2023-11-21T03:40:24;4.00;;;1.00;;
21181;SDS011;10749;46.296;7.524;2023-11-21T03:42:49;5.63;;;1.70;;
21181;SDS011;10749;46.296;7.524;2023-11-21T03:45:15;2.77;;;1.40;;
21181;SDS011;10749;46.296;7.524;2023-11-21T03:47:43;5.73;;;1.50;;
21181;SDS011;10749;46.296;7.524;2023-11-21T03:50:09;3.57;;;1.10;;
21181;SDS011;10749;46.296;7.524;2023-11-21T03:52:34;3.73;;;1.33;;
21181;SDS011;10749;46.296;7.524;2023-11-21T03:55:00;3.27;;;1.20;;
21181;SDS011;10749;46.296;7.524;2023-11-21T03:57:26;2.90;;;1.20;;
21181;SDS011;10749;46.296;7.524;2023-11-21T03:59:52;5.07;;;1.20;;
21181;SDS011;10749;46.296;7.524;2023-11-21T04:02:18;3.07;;;1.17;;
21181;SDS011;10749;46.296;7.524;2023-11-21T04:04:44;3.17;;;1.10;;
21181;SDS011;10749;46.296;7.524;2023-11-21T04:07:09;6.73;;;1.20;;
21181;SDS011;10749;46.296;7.524;2023-11-21T04:09:34;1.43;;;0.87;;
21181;SDS011;10749;46.296;7.524;2023-11-21T04:12:01;3.70;;;0.87;;
21181;SDS011;10749;46.296;7.524;2023-11-21T04:14:26;1.97;;;0.90;;
21181;SDS011;10749;46.296;7.524;2023-11-21T04:16:51;2.37;;;0.93;;
21181;SDS011;10749;46.296;7.524;2023-11-21T04:19:18;4.37;;;1.10;;
21181;SDS011;10749;46.296;7.524;2023-11-21T04:21:44;3.03;;;1.00;;
21181;SDS011;10749;46.296;7.524;2023-11-21T04:24:09;5.57;;;1.30;;
21181;SDS011;10749;46.296;7.524;2023-11-21T04:26:35;3.57;;;1.10;;
21181;SDS011;10749;46.296;7.524;2023-11-21T04:29:01;5.10;;;1.20;;
21181;SDS011;10749;46.296;7.524;2023-11-21T04:31:26;5.23;;;1.33;;
21181;SDS011;10749;46.296;7.524;2023-11-21T04:33:51;2.30;;;0.90;;
21181;SDS011;10749;46.296;7.524;2023-11-21T04:36:17;4.53;;;1.20;;
21181;SDS011;10749;46.296;7.524;2023-11-21T04:38:42;4.27;;;1.33;;
21181;SDS011;10749;46.296;7.524;2023-11-21T04:41:08;2.77;;;0.90;;
21181;SDS011;10749;46.296;7.524;2023-11-21T04:43:33;2.20;;;1.10;;
21181;SDS011;10749;46.296;7.524;2023-11-21T04:45:58;2.77;;;1.20;;
21181;SDS011;10749;46.296;7.524;2023-11-21T04:48:24;2.40;;;1.20;;
21181;SDS011;10749;46.296;7.524;2023-11-21T04:50:50;5.47;;;1.50;;
21181;SDS011;10749;46.296;7.524;2023-11-21T04:53:15;2.77;;;1.17;;
21181;SDS011;10749;46.296;7.524;2023-11-21T04:55:41;6.20;;;1.33;;
21181;SDS011;10749;46.296;7.524;2023-11-21T04:58:06;5.77;;;1.70;;
21181;SDS011;10749;46.296;7.524;2023-11-21T05:00:33;3.50;;;1.30;;
21181;SDS011;10749;46.296;7.524;2023-11-21T05:02:58;3.07;;;1.27;;
21181;SDS011;10749;46.296;7.524;2023-11-21T05:05:23;2.03;;;1.17;;
21181;SDS011;10749;46.296;7.524;2023-11-21T05:07:49;5.83;;;1.27;;
21181;SDS011;10749;46.296;7.524;2023-11-21T05:10:14;3.40;;;1.13;;
21181;SDS011;10749;46.296;7.524;2023-11-21T05:12:40;4.47;;;1.47;;
21181;SDS011;10749;46.296;7.524;2023-11-21T05:15:06;2.67;;;1.23;;
21181;SDS011;10749;46.296;7.524;2023-11-21T05:17:36;3.90;;;1.27;;
21181;SDS011;10749;46.296;7.524;2023-11-21T05:20:03;3.97;;;1.50;;
21181;SDS011;10749;46.296;7.524;2023-11-21T05:22:33;4.23;;;1.63;;
21181;SDS011;10749;46.296;7.524;2023-11-21T05:24:58;6.43;;;1.60;;
21181;SDS011;10749;46.296;7.524;2023-11-21T05:27:24;6.63;;;2.07;;
21181;SDS011;10749;46.296;7.524;2023-11-21T05:29:49;3.97;;;1.67;;
21181;SDS011;10749;46.296;7.524;2023-11-21T05:32:15;4.73;;;2.00;;
21181;SDS011;10749;46.296;7.524;2023-11-21T05:34:42;5.43;;;2.23;;
21181;SDS011;10749;46.296;7.524;2023-11-21T05:37:07;5.30;;;2.17;;
21181;SDS011;10749;46.296;7.524;2023-11-21T05:39:33;3.80;;;1.70;;
21181;SDS011;10749;46.296;7.524;2023-11-21T05:41:58;5.23;;;1.90;;
21181;SDS011;10749;46.296;7.524;2023-11-21T05:44:25;2.67;;;1.70;;
21181;SDS011;10749;46.296;7.524;2023-11-21T05:46:50;4.00;;;1.60;;
21181;SDS011;10749;46.296;7.524;2023-11-21T05:49:15;3.00;;;1.70;;
21181;SDS011;10749;46.296;7.524;2023-11-21T05:51:41;3.20;;;1.70;;
21181;SDS011;10749;46.296;7.524;2023-11-21T05:54:06;5.37;;;2.00;;
21181;SDS011;10749;46.296;7.524;2023-11-21T05:56:33;5.27;;;2.00;;
21181;SDS011;10749;46.296;7.524;2023-11-21T05:58:58;5.30;;;1.80;;
21181;SDS011;10749;46.296;7.524;2023-11-21T06:01:24;3.50;;;1.67;;
21181;SDS011;10749;46.296;7.524;2023-11-21T06:03:53;2.77;;;1.93;;
21181;SDS011;10749;46.296;7.524;2023-11-21T06:06:19;3.57;;;1.90;;
21181;SDS011;10749;46.296;7.524;2023-11-21T06:08:47;5.00;;;1.87;;
21181;SDS011;10749;46.296;7.524;2023-11-21T06:11:13;5.43;;;2.60;;
21181;SDS011;10749;46.296;7.524;2023-11-21T06:13:39;4.03;;;2.30;;
21181;SDS011;10749;46.296;7.524;2023-11-21T06:16:04;6.60;;;2.60;;
21181;SDS011;10749;46.296;7.524;2023-11-21T06:18:30;3.90;;;2.20;;
21181;SDS011;10749;46.296;7.524;2023-11-21T06:20:55;4.77;;;2.90;;
21181;SDS011;10749;46.296;7.524;2023-11-21T06:23:20;9.60;;;3.13;;
21181;SDS011;10749;46.296;7.524;2023-11-21T06:25:46;7.17;;;3.10;;
21181;SDS011;10749;46.296;7.524;2023-11-21T06:28:11;5.33;;;2.67;;
21181;SDS011;10749;46.296;7.524;2023-11-21T06:30:36;9.30;;;2.80;;
21181;SDS011;10749;46.296;7.524;2023-11-21T06:33:01;6.77;;;2.27;;
21181;SDS011;10749;46.296;7.524;2023-11-21T06:35:27;3.60;;;2.03;;
21181;SDS011;10749;46.296;7.524;2023-11-21T06:37:55;5.70;;;1.93;;
21181;SDS011;10749;46.296;7.524;2023-11-21T06:40:20;3.10;;;1.50;;
21181;SDS011;10749;46.296;7.524;2023-11-21T06:42:46;3.73;;;1.77;;
21181;SDS011;10749;46.296;7.524;2023-11-21T06:45:12;5.00;;;1.83;;
21181;SDS011;10749;46.296;7.524;2023-11-21T06:47:37;6.13;;;1.70;;
21181;SDS011;10749;46.296;7.524;2023-11-21T06:50:03;4.87;;;1.93;;
21181;SDS011;10749;46.296;7.524;2023-11-21T06:52:29;9.00;;;2.37;;
21181;SDS011;10749;46.296;7.524;2023-11-21T06:54:54;4.90;;;2.43;;
21181;SDS011;10749;46.296;7.524;2023-11-21T06:57:19;7.33;;;2.50;;
21181;SDS011;10749;46.296;7.524;2023-11-21T06:59:45;6.77;;;2.50;;
21181;SDS011;10749;46.296;7.524;2023-11-21T07:02:10;6.47;;;3.00;;
21181;SDS011;10749;46.296;7.524;2023-11-21T07:04:35;7.20;;;3.10;;
21181;SDS011;10749;46.296;7.524;2023-11-21T07:07:02;7.03;;;3.00;;
21181;SDS011;10749;46.296;7.524;2023-11-21T07:09:28;5.57;;;2.53;;
21181;SDS011;10749;46.296;7.524;2023-11-21T07:11:54;8.63;;;2.93;;
21181;SDS011;10749;46.296;7.524;2023-11-21T07:14:20;7.73;;;2.50;;
21181;SDS011;10749;46.296;7.524;2023-11-21T07:16:46;6.67;;;2.20;;
21181;SDS011;10749;46.296;7.524;2023-11-21T07:19:11;6.13;;;2.80;;
21181;SDS011;10749;46.296;7.524;2023-11-21T07:21:37;4.80;;;1.90;;
21181;SDS011;10749;46.296;7.524;2023-11-21T07:24:04;3.67;;;1.87;;
21181;SDS011;10749;46.296;7.524;2023-11-21T07:26:31;3.43;;;2.20;;
21181;SDS011;10749;46.296;7.524;2023-11-21T07:28:58;2.83;;;1.60;;
21181;SDS011;10749;46.296;7.524;2023-11-21T07:31:23;5.63;;;1.43;;
21181;SDS011;10749;46.296;7.524;2023-11-21T07:33:49;2.80;;;1.30;;
21181;SDS011;10749;46.296;7.524;2023-11-21T07:36:16;2.73;;;1.30;;
21181;SDS011;10749;46.296;7.524;2023-11-21T07:38:43;5.33;;;1.20;;
21181;SDS011;10749;46.296;7.524;2023-11-21T07:41:08;3.47;;;1.50;;
21181;SDS011;10749;46.296;7.524;2023-11-21T07:43:34;2.80;;;1.87;;
21181;SDS011;10749;46.296;7.524;2023-11-21T07:46:03;2.60;;;1.40;;
21181;SDS011;10749;46.296;7.524;2023-11-21T07:48:29;4.43;;;2.00;;
21181;SDS011;10749;46.296;7.524;2023-11-21T07:50:55;5.67;;;2.00;;
21181;SDS011;10749;46.296;7.524;2023-11-21T07:53:20;4.33;;;2.10;;
21181;SDS011;10749;46.296;7.524;2023-11-21T07:55:46;4.90;;;2.17;;
21181;SDS011;10749;46.296;7.524;2023-11-21T07:58:12;7.33;;;2.20;;
21181;SDS011;10749;46.296;7.524;2023-11-21T08:00:37;5.50;;;2.07;;
21181;SDS011;10749;46.296;7.524;2023-11-21T08:03:04;4.97;;;1.53;;
21181;SDS011;10749;46.296;7.524;2023-11-21T08:05:30;4.10;;;1.50;;
21181;SDS011;10749;46.296;7.524;2023-11-21T08:07:56;2.93;;;1.37;;
21181;SDS011;10749;46.296;7.524;2023-11-21T08:10:21;6.10;;;2.20;;
21181;SDS011;10749;46.296;7.524;2023-11-21T08:12:47;3.93;;;1.80;;
21181;SDS011;10749;46.296;7.524;2023-11-21T08:15:13;4.30;;;1.80;;
21181;SDS011;10749;46.296;7.524;2023-11-21T08:17:39;4.20;;;2.00;;
21181;SDS011;10749;46.296;7.524;2023-11-21T08:20:05;8.23;;;2.27;;
21181;SDS011;10749;46.296;7.524;2023-11-21T08:22:31;5.47;;;2.17;;
21181;SDS011;10749;46.296;7.524;2023-11-21T08:24:57;3.73;;;2.30;;
21181;SDS011;10749;46.296;7.524;2023-11-21T08:27:22;7.00;;;3.00;;
21181;SDS011;10749;46.296;7.524;2023-11-21T08:29:48;5.13;;;2.33;;
21181;SDS011;10749;46.296;7.524;2023-11-21T08:32:13;8.80;;;2.40;;
21181;SDS011;10749;46.296;7.524;2023-11-21T08:34:39;5.43;;;2.87;;
21181;SDS011;10749;46.296;7.524;2023-11-21T08:37:05;6.97;;;2.27;;
21181;SDS011;10749;46.296;7.524;2023-11-21T08:39:30;4.83;;;2.30;;
21181;SDS011;10749;46.296;7.524;2023-11-21T08:41:56;5.43;;;2.43;;
21181;SDS011;10749;46.296;7.524;2023-11-21T08:44:22;5.90;;;2.60;;
21181;SDS011;10749;46.296;7.524;2023-11-21T08:46:48;6.43;;;3.20;;
21181;SDS011;10749;46.296;7.524;2023-11-21T08:49:14;7.10;;;2.67;;
21181;SDS011;10749;46.296;7.524;2023-11-21T08:51:40;6.53;;;2.20;;
21181;SDS011;10749;46.296;7.524;2023-11-21T08:54:06;4.57;;;2.03;;
21181;SDS011;10749;46.296;7.524;2023-11-21T08:56:35;6.07;;;2.00;;
21181;SDS011;10749;46.296;7.524;2023-11-21T08:59:01;3.10;;;1.83;;
21181;SDS011;10749;46.296;7.524;2023-11-21T09:01:29;4.33;;;1.50;;
21181;SDS011;10749;46.296;7.524;2023-11-21T09:03:56;9.33;;;2.00;;
21181;SDS011;10749;46.296;7.524;2023-11-21T09:06:22;3.67;;;1.50;;
21181;SDS011;10749;46.296;7.524;2023-11-21T09:08:47;2.90;;;1.40;;
21181;SDS011;10749;46.296;7.524;2023-11-21T09:11:13;3.33;;;1.40;;
21181;SDS011;10749;46.296;7.524;2023-11-21T09:13:38;4.23;;;1.47;;
21181;SDS011;10749;46.296;7.524;2023-11-21T09:16:04;2.73;;;1.07;;
21181;SDS011;10749;46.296;7.524;2023-11-21T09:18:30;3.70;;;1.60;;
21181;SDS011;10749;46.296;7.524;2023-11-21T09:20:56;3.93;;;1.70;;
21181;SDS011;10749;46.296;7.524;2023-11-21T09:23:21;4.57;;;2.00;;
21181;SDS011;10749;46.296;7.524;2023-11-21T09:25:47;5.50;;;2.30;;
21181;SDS011;10749;46.296;7.524;2023-11-21T09:28:15;6.13;;;2.00;;
21181;SDS011;10749;46.296;7.524;2023-11-21T09:30:40;8.80;;;3.13;;
21181;SDS011;10749;46.296;7.524;2023-11-21T09:33:06;8.50;;;2.77;;
21181;SDS011;10749;46.296;7.524;2023-11-21T09:35:31;5.80;;;2.77;;
21181;SDS011;10749;46.296;7.524;2023-11-21T09:37:57;7.50;;;2.63;;
21181;SDS011;10749;46.296;7.524;2023-11-21T09:40:22;7.30;;;2.50;;
21181;SDS011;10749;46.296;7.524;2023-11-21T09:42:49;5.67;;;2.60;;
21181;SDS011;10749;46.296;7.524;2023-11-21T09:45:27;4.87;;;2.50;;
21181;SDS011;10749;46.296;7.524;2023-11-21T09:47:54;8.67;;;2.23;;
21181;SDS011;10749;46.296;7.524;2023-11-21T09:50:20;4.73;;;1.93;;
21181;SDS011;10749;46.296;7.524;2023-11-21T09:55:32;4.30;;;1.70;;
21181;SDS011;10749;46.296;7.524;2023-11-21T09:58:01;7.90;;;2.87;;
21181;SDS011;10749;46.296;7.524;2023-11-21T10:00:28;9.30;;;2.50;;
21181;SDS011;10749;46.296;7.524;2023-11-21T10:02:57;8.53;;;2.43;;
21181;SDS011;10749;46.296;7.524;2023-11-21T10:05:23;8.17;;;3.67;;
21181;SDS011;10749;46.296;7.524;2023-11-21T10:07:49;18.70;;;6.93;;
21181;SDS011;10749;46.296;7.524;2023-11-21T10:10:16;6.10;;;2.57;;
21181;SDS011;10749;46.296;7.524;2023-11-21T10:12:44;6.93;;;2.40;;
21181;SDS011;10749;46.296;7.524;2023-11-21T10:15:14;5.97;;;2.37;;
21181;SDS011;10749;46.296;7.524;2023-11-21T10:17:41;5.17;;;2.40;;
21181;SDS011;10749;46.296;7.524;2023-11-21T10:20:13;6.70;;;2.50;;
21181;SDS011;10749;46.296;7.524;2023-11-21T10:22:43;7.30;;;2.87;;
21181;SDS011;10749;46.296;7.524;2023-11-21T10:25:08;5.37;;;2.33;;
21181;SDS011;10749;46.296;7.524;2023-11-21T10:27:35;4.30;;;1.93;;
21181;SDS011;10749;46.296;7.524;2023-11-21T10:30:02;5.53;;;2.10;;
21181;SDS011;10749;46.296;7.524;2023-11-21T10:32:29;5.00;;;2.10;;
21181;SDS011;10749;46.296;7.524;2023-11-21T10:34:58;4.37;;;2.17;;
21181;SDS011;10749;46.296;7.524;2023-11-21T10:37:31;8.03;;;2.53;;
21181;SDS011;10749;46.296;7.524;2023-11-21T10:40:00;4.23;;;1.93;;
21181;SDS011;10749;46.296;7.524;2023-11-21T10:42:25;5.90;;;1.63;;
21181;SDS011;10749;46.296;7.524;2023-11-21T10:44:52;8.00;;;2.17;;
21181;SDS011;10749;46.296;7.524;2023-11-21T10:47:18;6.00;;;1.63;;
21181;SDS011;10749;46.296;7.524;2023-11-21T10:49:44;4.70;;;2.10;;
21181;SDS011;10749;46.296;7.524;2023-11-21T10:52:12;5.20;;;1.83;;
21181;SDS011;10749;46.296;7.524;2023-11-21T10:54:42;5.00;;;1.97;;
21181;SDS011;10749;46.296;7.524;2023-11-21T10:57:08;5.53;;;1.50;;
21181;SDS011;10749;46.296;7.524;2023-11-21T10:59:34;5.17;;;1.70;;
21181;SDS011;10749;46.296;7.524;2023-11-21T11:02:01;5.87;;;1.90;;
21181;SDS011;10749;46.296;7.524;2023-11-21T11:04:32;5.77;;;1.60;;
21181;SDS011;10749;46.296;7.524;2023-11-21T11:07:01;4.57;;;1.40;;
21181;SDS011;10749;46.296;7.524;2023-11-21T11:09:28;4.03;;;1.50;;
21181;SDS011;10749;46.296;7.524;2023-11-21T11:11:57;4.67;;;1.60;;
21181;SDS011;10749;46.296;7.524;2023-11-21T11:14:23;4.93;;;1.70;;
21181;SDS011;10749;46.296;7.524;2023-11-21T11:16:53;4.00;;;1.60;;
21181;SDS011;10749;46.296;7.524;2023-11-21T11:19:19;3.47;;;1.70;;
21181;SDS011;10749;46.296;7.524;2023-11-21T11:33:10;2.63;;;1.20;;
21181;SDS011;10749;46.296;7.524;2023-11-21T11:35:56;3.77;;;1.20;;
21181;SDS011;10749;46.296;7.524;2023-11-21T11:38:31;4.13;;;1.10;;
21181;SDS011;10749;46.296;7.524;2023-11-21T11:41:00;4.90;;;1.60;;
21181;SDS011;10749;46.296;7.524;2023-11-21T11:43:27;6.33;;;1.33;;
21181;SDS011;10749;46.296;7.524;2023-11-21T11:45:56;3.50;;;1.50;;
21181;SDS011;10749;46.296;7.524;2023-11-21T11:48:24;3.37;;;1.50;;
21181;SDS011;10749;46.296;7.524;2023-11-21T11:51:11;3.40;;;1.73;;
21181;SDS011;10749;46.296;7.524;2023-11-21T11:53:39;4.20;;;1.77;;
21181;SDS011;10749;46.296;7.524;2023-11-21T11:58:59;2.97;;;1.50;;
21181;SDS011;10749;46.296;7.524;2023-11-21T12:01:28;4.00;;;1.47;;
21181;SDS011;10749;46.296;7.524;2023-11-21T12:06:59;5.47;;;1.30;;
21181;SDS011;10749;46.296;7.524;2023-11-21T12:09:27;2.97;;;1.20;;
21181;SDS011;10749;46.296;7.524;2023-11-21T12:11:54;3.40;;;1.40;;
21181;SDS011;10749;46.296;7.524;2023-11-21T12:14:21;4.00;;;1.40;;
21181;SDS011;10749;46.296;7.524;2023-11-21T12:16:47;3.17;;;1.13;;
21181;SDS011;10749;46.296;7.524;2023-11-21T12:19:13;2.73;;;1.03;;
21181;SDS011;10749;46.296;7.524;2023-11-21T12:21:40;2.67;;;0.97;;
21181;SDS011;10749;46.296;7.524;2023-11-21T12:24:06;2.60;;;1.17;;
21181;SDS011;10749;46.296;7.524;2023-11-21T12:26:33;2.90;;;1.00;;
21181;SDS011;10749;46.296;7.524;2023-11-21T12:29:02;4.23;;;1.20;;
21181;SDS011;10749;46.296;7.524;2023-11-21T12:31:29;2.57;;;1.00;;
21181;SDS011;10749;46.296;7.524;2023-11-21T12:33:55;3.27;;;0.90;;
21181;SDS011;10749;46.296;7.524;2023-11-21T12:36:21;1.83;;;0.80;;
21181;SDS011;10749;46.296;7.524;2023-11-21T12:38:47;2.73;;;0.93;;
21181;SDS011;10749;46.296;7.524;2023-11-21T12:41:12;2.33;;;0.90;;
21181;SDS011;10749;46.296;7.524;2023-11-21T12:43:38;2.13;;;1.00;;
21181;SDS011;10749;46.296;7.524;2023-11-21T12:46:10;4.80;;;1.00;;
21181;SDS011;10749;46.296;7.524;2023-11-21T12:48:42;2.20;;;0.80;;
21181;SDS011;10749;46.296;7.524;2023-11-21T12:51:09;4.40;;;1.00;;
21181;SDS011;10749;46.296;7.524;2023-11-21T12:53:43;3.70;;;0.90;;
21181;SDS011;10749;46.296;7.524;2023-11-21T12:56:10;2.40;;;0.80;;
21181;SDS011;10749;46.296;7.524;2023-11-21T12:58:39;2.43;;;0.70;;
21181;SDS011;10749;46.296;7.524;2023-11-21T13:01:09;3.47;;;0.77;;
21181;SDS011;10749;46.296;7.524;2023-11-21T13:03:37;2.73;;;1.10;;
21181;SDS011;10749;46.296;7.524;2023-11-21T13:06:03;2.17;;;0.93;;
21181;SDS011;10749;46.296;7.524;2023-11-21T13:08:30;2.00;;;0.80;;
21181;SDS011;10749;46.296;7.524;2023-11-21T13:10:56;3.07;;;0.73;;
21181;SDS011;10749;46.296;7.524;2023-11-21T13:13:22;3.83;;;1.00;;
21181;SDS011;10749;46.296;7.524;2023-11-21T13:18:26;4.30;;;1.10;;
21181;SDS011;10749;46.296;7.524;2023-11-21T13:20:52;5.93;;;1.27;;
21181;SDS011;10749;46.296;7.524;2023-11-21T13:23:18;3.73;;;1.13;;
21181;SDS011;10749;46.296;7.524;2023-11-21T13:25:43;1.97;;;1.00;;
21181;SDS011;10749;46.296;7.524;2023-11-21T13:28:10;5.33;;;1.30;;
21181;SDS011;10749;46.296;7.524;2023-11-21T13:30:36;2.33;;;1.13;;
21181;SDS011;10749;46.296;7.524;2023-11-21T13:33:04;3.10;;;1.10;;
21181;SDS011;10749;46.296;7.524;2023-11-21T13:35:33;3.87;;;0.90;;
21181;SDS011;10749;46.296;7.524;2023-11-21T13:38:10;2.67;;;0.70;;
21181;SDS011;10749;46.296;7.524;2023-11-21T13:40:41;3.70;;;1.53;;
21181;SDS011;10749;46.296;7.524;2023-11-21T13:43:11;2.77;;;1.13;;
21181;SDS011;10749;46.296;7.524;2023-11-21T13:45:39;4.37;;;0.93;;
21181;SDS011;10749;46.296;7.524;2023-11-21T13:48:06;3.43;;;0.80;;
21181;SDS011;10749;46.296;7.524;2023-11-21T13:50:41;3.13;;;0.90;;
21181;SDS011;10749;46.296;7.524;2023-11-21T13:53:43;4.20;;;1.10;;
21181;SDS011;10749;46.296;7.524;2023-11-21T13:56:10;3.93;;;0.80;;
21181;SDS011;10749;46.296;7.524;2023-11-21T13:58:37;2.73;;;1.10;;
21181;SDS011;10749;46.296;7.524;2023-11-21T14:01:16;2.90;;;0.80;;
21181;SDS011;10749;46.296;7.524;2023-11-21T14:03:54;2.60;;;0.90;;
21181;SDS011;10749;46.296;7.524;2023-11-21T14:06:34;2.53;;;0.80;;
21181;SDS011;10749;46.296;7.524;2023-11-21T14:09:07;2.17;;;0.90;;
21181;SDS011;10749;46.296;7.524;2023-11-21T14:11:33;5.57;;;1.20;;
21181;SDS011;10749;46.296;7.524;2023-11-21T14:14:03;2.03;;;0.50;;
21181;SDS011;10749;46.296;7.524;2023-11-21T14:16:28;2.00;;;0.50;;
21181;SDS011;10749;46.296;7.524;2023-11-21T14:18:53;3.50;;;0.80;;
21181;SDS011;10749;46.296;7.524;2023-11-21T14:21:26;1.10;;;0.60;;
21181;SDS011;10749;46.296;7.524;2023-11-21T14:23:52;4.03;;;0.60;;
21181;SDS011;10749;46.296;7.524;2023-11-21T14:26:19;2.43;;;0.63;;
21181;SDS011;10749;46.296;7.524;2023-11-21T14:28:45;1.93;;;0.40;;
21181;SDS011;10749;46.296;7.524;2023-11-21T14:31:13;1.30;;;0.70;;
21181;SDS011;10749;46.296;7.524;2023-11-21T14:33:41;0.73;;;0.40;;
21181;SDS011;10749;46.296;7.524;2023-11-21T14:36:07;2.20;;;0.70;;
21181;SDS011;10749;46.296;7.524;2023-11-21T14:38:35;0.87;;;0.50;;
21181;SDS011;10749;46.296;7.524;2023-11-21T14:41:01;1.80;;;0.50;;
21181;SDS011;10749;46.296;7.524;2023-11-21T14:43:26;1.60;;;0.50;;
21181;SDS011;10749;46.296;7.524;2023-11-21T14:45:54;2.53;;;1.87;;
21181;SDS011;10749;46.296;7.524;2023-11-21T14:48:22;2.43;;;0.90;;
21181;SDS011;10749;46.296;7.524;2023-11-21T14:51:06;2.33;;;1.13;;
21181;SDS011;10749;46.296;7.524;2023-11-21T14:53:50;2.70;;;1.03;;
21181;SDS011;10749;46.296;7.524;2023-11-21T14:56:20;3.03;;;1.00;;
21181;SDS011;10749;46.296;7.524;2023-11-21T14:58:51;3.43;;;1.20;;
21181;SDS011;10749;46.296;7.524;2023-11-21T15:01:21;1.80;;;0.70;;
21181;SDS011;10749;46.296;7.524;2023-11-21T15:04:09;3.60;;;2.40;;
21181;SDS011;10749;46.296;7.524;2023-11-21T15:06:41;12.00;;;6.57;;
21181;SDS011;10749;46.296;7.524;2023-11-21T15:09:08;4.43;;;2.57;;